Time;durP1;ratioP1;P1;durP2;ratioP2;P2;SDS_P1;SDS_P2;PMS_P1;PMS_P2;Temp;Humidity;BMP_temperature;BMP_pressure;BME280_temperature;BME280_humidity;BME280_pressure;Samples;Min_cycle;Max_cycle;Signal;HPM_P1;HPM_P2
2022/12/08 00:00:23;;;;;;;;;;;3.70;99.90;;;;;;5067569;28;19916;-75
2022/12/08 00:02:48;;;;;;;;;;;3.70;99.90;;;;;;5074941;28;20003;-76
2022/12/08 00:10:43;;;;;;;;;;;3.60;99.90;;;;;;5075217;28;19921;-75
2022/12/08 00:13:09;;;;;;;;;;;4.00;99.90;;;;;;5075361;28;20011;-75
2022/12/08 00:15:35;;;;;;;;;;;3.60;99.90;;;;;;5064184;28;20410;-75
2022/12/08 00:18:01;;;;;;;;;;;3.50;99.90;;;;;;5054626;28;19927;-75
2022/12/08 00:20:26;;;;;;;;;;;3.50;99.90;;;;;;5055616;28;20295;-75
2022/12/08 00:22:52;;;;;;;;;;;3.40;99.90;;;;;;5054751;28;20257;-75
2022/12/08 00:25:17;;;;;;;;;;;3.90;99.90;;;;;;5054453;28;19959;-75
2022/12/08 00:27:43;;;;;;;;;;;5.50;99.90;;;;;;5055281;28;20281;-75
2022/12/08 00:30:08;;;;;;;;;;;3.40;99.90;;;;;;5061243;28;19920;-74
2022/12/08 00:32:35;;;;;;;;;;;3.40;99.90;;;;;;5074462;28;19920;-74
2022/12/08 00:35:01;;;;;;;;;;;3.50;99.90;;;;;;5074180;28;20333;-75
2022/12/08 00:37:26;;;;;;;;;;;4.00;99.90;;;;;;5074574;28;19920;-75
2022/12/08 00:39:52;;;;;;;;;;;3.50;99.90;;;;;;5070099;28;20054;-75
2022/12/08 00:42:17;;;;;;;;;;;3.50;99.90;;;;;;5055088;28;19925;-75
2022/12/08 00:44:43;;;;;;;;;;;3.50;99.90;;;;;;5087530;28;19966;-75
2022/12/08 00:47:09;;;;;;;;;;;3.50;99.90;;;;;;5053342;28;19920;-75
2022/12/08 00:49:37;;;;;;;;;;;4.10;99.90;;;;;;5055739;28;19967;-75
2022/12/08 00:52:03;;;;;;;;;;;3.60;99.90;;;;;;5071734;28;19925;-75
2022/12/08 00:54:29;;;;;;;;;;;3.60;99.90;;;;;;5074007;28;19990;-75
2022/12/08 00:56:54;;;;;;;;;;;3.70;99.90;;;;;;5073744;28;19921;-75
2022/12/08 00:59:20;;;;;;;;;;;3.60;99.90;;;;;;5074128;28;19927;-74
2022/12/08 01:01:46;;;;;;;;;;;3.60;99.90;;;;;;5055853;28;19928;-75
2022/12/08 01:04:14;;;;;;;;;;;3.60;99.90;;;;;;5053267;28;19920;-74
2022/12/08 01:06:40;;;;;;;;;;;3.60;99.90;;;;;;5053433;28;19927;-75
2022/12/08 01:09:06;;;;;;;;;;;3.50;99.90;;;;;;5052711;28;19924;-75
2022/12/08 01:11:32;;;;;;;;;;;3.40;99.90;;;;;;5054388;28;19920;-75
2022/12/08 01:13:57;;;;;;;;;;;3.30;99.90;;;;;;5052336;28;20287;-75
2022/12/08 01:16:24;;;;;;;;;;;3.70;99.90;;;;;;5067640;28;19966;-75
2022/12/08 01:18:50;;;;;;;;;;;3.10;99.90;;;;;;5073646;28;19943;-75
2022/12/08 01:21:16;;;;;;;;;;;3.10;99.90;;;;;;5072539;28;20375;-75
2022/12/08 01:23:41;;;;;;;;;;;3.00;99.90;;;;;;5070863;28;19924;-75
2022/12/08 01:26:07;;;;;;;;;;;3.00;99.90;;;;;;5073581;28;19947;-75
2022/12/08 01:28:33;;;;;;;;;;;3.10;99.90;;;;;;5073395;28;19920;-75
2022/12/08 01:30:59;;;;;;;;;;;3.10;99.90;;;;;;5072713;28;19927;-75
2022/12/08 01:33:25;;;;;;;;;;;3.10;99.90;;;;;;5074301;28;19925;-74
2022/12/08 01:35:51;;;;;;;;;;;3.10;99.90;;;;;;5070991;28;19924;-75
2022/12/08 01:38:17;;;;;;;;;;;3.10;99.90;;;;;;5073811;28;20261;-75
2022/12/08 01:40:42;;;;;;;;;;;3.20;99.90;;;;;;5067784;28;19921;-75
2022/12/08 01:43:15;;;;;;;;;;;3.20;99.90;;;;;;5052234;28;19927;-75
2022/12/08 01:45:41;;;;;;;;;;;3.20;99.90;;;;;;5053431;28;20272;-75
2022/12/08 01:48:08;;;;;;;;;;;3.30;99.90;;;;;;5053143;28;19921;-75
2022/12/08 01:50:34;;;;;;;;;;;3.30;99.90;;;;;;5056084;28;19932;-74
2022/12/08 01:53:11;;;;;;;;;;;3.90;99.90;;;;;;5072113;28;19920;-74
2022/12/08 01:55:46;;;;;;;;;;;3.30;99.90;;;;;;5073158;28;19973;-74
2022/12/08 01:58:14;;;;;;;;;;;3.30;99.90;;;;;;5072498;28;20019;-74
2022/12/08 02:00:40;;;;;;;;;;;3.30;99.90;;;;;;5069767;28;20037;-75
2022/12/08 02:03:07;;;;;;;;;;;3.30;99.90;;;;;;5051296;28;20374;-75
2022/12/08 02:05:34;;;;;;;;;;;3.30;99.90;;;;;;5053011;28;19927;-75
2022/12/08 02:08:03;;;;;;;;;;;3.30;99.90;;;;;;5052618;28;20004;-75
2022/12/08 02:10:32;;;;;;;;;;;3.30;99.90;;;;;;5053109;28;19921;-75
2022/12/08 02:12:59;;;;;;;;;;;3.30;99.90;;;;;;5053044;28;19963;-75
2022/12/08 02:15:34;;;;;;;;;;;3.20;99.90;;;;;;5052864;28;19928;-75
2022/12/08 02:18:00;;;;;;;;;;;3.70;99.90;;;;;;5072525;28;19920;-76
2022/12/08 02:20:36;;;;;;;;;;;4.20;99.90;;;;;;5073069;28;20386;-76
2022/12/08 02:23:02;;;;;;;;;;;3.30;99.90;;;;;;5073185;28;20003;-77
2022/12/08 02:25:46;;;;;;;;;;;3.30;99.90;;;;;;5071140;28;20020;-76
2022/12/08 02:28:18;;;;;;;;;;;3.20;99.90;;;;;;5071274;28;19963;-76
2022/12/08 02:30:43;;;;;;;;;;;3.10;99.90;;;;;;5070594;28;19921;-77
2022/12/08 02:33:30;;;;;;;;;;;3.00;99.90;;;;;;5055333;28;19920;-77
2022/12/08 02:36:03;;;;;;;;;;;2.90;99.90;;;;;;5051969;28;20296;-76
2022/12/08 02:38:55;;;;;;;;;;;2.90;99.90;;;;;;5053161;28;20275;-76
2022/12/08 02:41:39;;;;;;;;;;;2.90;99.90;;;;;;5036764;28;19927;-76
2022/12/08 02:44:11;;;;;;;;;;;2.80;99.90;;;;;;5052046;28;19927;-76
2022/12/08 02:46:43;;;;;;;;;;;3.10;99.90;;;;;;5052415;28;19975;-76
2022/12/08 02:49:09;;;;;;;;;;;2.80;99.90;;;;;;5051058;28;19920;-76
2022/12/08 02:51:35;;;;;;;;;;;2.80;99.90;;;;;;5053010;28;19974;-76
2022/12/08 02:54:01;;;;;;;;;;;4.20;99.90;;;;;;5052000;28;19920;-76
2022/12/08 02:56:29;;;;;;;;;;;2.70;99.90;;;;;;5052372;28;19921;-76
2022/12/08 02:58:55;;;;;;;;;;;2.70;99.90;;;;;;5051908;28;20017;-75
2022/12/08 03:01:23;;;;;;;;;;;2.70;99.90;;;;;;5052408;28;19963;-76
2022/12/08 03:03:55;;;;;;;;;;;2.70;99.90;;;;;;5065160;28;19926;-76
2022/12/08 03:06:20;;;;;;;;;;;2.70;99.90;;;;;;5084032;28;19921;-75
2022/12/08 03:09:09;;;;;;;;;;;2.70;99.90;;;;;;5052182;28;20331;-76
2022/12/08 03:11:34;;;;;;;;;;;2.60;99.90;;;;;;5050969;28;19921;-76
2022/12/08 03:14:02;;;;;;;;;;;2.60;99.90;;;;;;5051488;28;19927;-76
2022/12/08 03:16:28;;;;;;;;;;;2.60;99.90;;;;;;5052077;28;19924;-76
2022/12/08 03:19:16;;;;;;;;;;;3.40;99.90;;;;;;5071114;28;19920;-76
2022/12/08 03:21:43;;;;;;;;;;;4.50;99.90;;;;;;5076246;28;19960;-76
2022/12/08 03:24:11;;;;;;;;;;;2.80;99.90;;;;;;5076090;28;20010;-76
2022/12/08 03:26:52;;;;;;;;;;;2.90;99.90;;;;;;5076345;28;19920;-76
2022/12/08 03:29:17;;;;;;;;;;;2.60;99.90;;;;;;5076183;28;19920;-77
2022/12/08 03:31:50;;;;;;;;;;;2.60;99.90;;;;;;5075426;28;19920;-77
2022/12/08 03:34:17;;;;;;;;;;;2.60;99.90;;;;;;5056803;28;19975;-76
2022/12/08 03:36:43;;;;;;;;;;;2.80;99.90;;;;;;5054562;28;19925;-76
2022/12/08 03:39:10;;;;;;;;;;;2.50;99.90;;;;;;5055924;28;19921;-77
2022/12/08 03:41:35;;;;;;;;;;;2.50;99.90;;;;;;5055454;28;20372;-75
2022/12/08 03:44:01;;;;;;;;;;;3.60;99.90;;;;;;5055834;28;19927;-75
2022/12/08 03:46:28;;;;;;;;;;;2.40;99.90;;;;;;5055643;28;19924;-75
2022/12/08 03:48:53;;;;;;;;;;;2.40;99.90;;;;;;5054398;28;20283;-76
2022/12/08 03:51:19;;;;;;;;;;;2.40;99.90;;;;;;5055824;28;19921;-75
2022/12/08 03:53:45;;;;;;;;;;;2.40;99.90;;;;;;5069779;28;19920;-75
2022/12/08 03:56:14;;;;;;;;;;;3.80;99.90;;;;;;5074896;28;19931;-76
2022/12/08 03:58:40;;;;;;;;;;;2.30;99.90;;;;;;5076064;28;19920;-76
2022/12/08 04:01:06;;;;;;;;;;;2.30;99.90;;;;;;5075532;28;19920;-76
2022/12/08 04:03:31;;;;;;;;;;;2.20;99.90;;;;;;5065543;28;19927;-76
2022/12/08 04:05:57;;;;;;;;;;;2.30;99.90;;;;;;5074909;28;19928;-76
2022/12/08 04:08:22;;;;;;;;;;;2.30;99.90;;;;;;5075660;28;19920;-76
2022/12/08 04:10:48;;;;;;;;;;;2.20;99.90;;;;;;5073857;28;19933;-76
2022/12/08 04:13:13;;;;;;;;;;;2.30;99.90;;;;;;5074034;28;20010;-76
2022/12/08 04:15:43;;;;;;;;;;;2.30;99.90;;;;;;5075270;28;19920;-76
2022/12/08 04:18:09;;;;;;;;;;;3.50;99.90;;;;;;5065558;28;19942;-76
2022/12/08 04:20:37;;;;;;;;;;;2.30;99.90;;;;;;5087785;28;19925;-76
2022/12/08 04:23:03;;;;;;;;;;;2.30;99.90;;;;;;5055038;28;20016;-76
2022/12/08 04:25:28;;;;;;;;;;;3.30;99.90;;;;;;5053721;28;20338;-76
2022/12/08 04:27:55;;;;;;;;;;;2.40;99.90;;;;;;5054309;28;20431;-76
2022/12/08 04:30:20;;;;;;;;;;;2.40;99.90;;;;;;5054767;28;20019;-76
2022/12/08 04:32:46;;;;;;;;;;;2.50;99.90;;;;;;5058669;28;19972;-76
2022/12/08 04:35:14;;;;;;;;;;;2.50;99.90;;;;;;5073476;28;19973;-76
2022/12/08 04:37:40;;;;;;;;;;;2.50;99.90;;;;;;5074854;28;19920;-76
2022/12/08 04:40:06;;;;;;;;;;;2.50;99.90;;;;;;5074555;28;19946;-76
2022/12/08 04:42:31;;;;;;;;;;;2.60;99.90;;;;;;5072159;28;20348;-76
2022/12/08 04:44:57;;;;;;;;;;;2.60;99.90;;;;;;5054469;28;20015;-76
2022/12/08 04:47:22;;;;;;;;;;;2.60;99.90;;;;;;5054678;28;19927;-76
2022/12/08 04:49:48;;;;;;;;;;;4.00;99.90;;;;;;5053678;28;19920;-76
2022/12/08 04:52:13;;;;;;;;;;;2.60;99.90;;;;;;5054673;28;19921;-76
2022/12/08 04:54:42;;;;;;;;;;;3.40;99.90;;;;;;5055984;28;19971;-76
2022/12/08 04:57:10;;;;;;;;;;;2.60;99.90;;;;;;5086488;28;20054;-76
2022/12/08 04:59:36;;;;;;;;;;;2.50;99.90;;;;;;5059933;28;19921;-76
2022/12/08 05:02:01;;;;;;;;;;;2.50;99.90;;;;;;5064464;28;19916;-76
2022/12/08 05:04:27;;;;;;;;;;;2.50;99.90;;;;;;5073073;28;19993;-76
2022/12/08 05:06:52;;;;;;;;;;;2.50;99.90;;;;;;5071350;28;19920;-76
2022/12/08 05:09:18;;;;;;;;;;;2.40;99.90;;;;;;5069323;28;19927;-76
2022/12/08 05:11:43;;;;;;;;;;;2.50;99.90;;;;;;5074321;28;19920;-76
2022/12/08 05:14:10;;;;;;;;;;;2.50;99.90;;;;;;5089410;28;20020;-76
2022/12/08 05:16:37;;;;;;;;;;;3.10;99.90;;;;;;5057075;28;19920;-76
2022/12/08 05:19:02;;;;;;;;;;;2.50;99.90;;;;;;5086650;28;20419;-76
2022/12/08 05:21:28;;;;;;;;;;;2.50;99.90;;;;;;5053979;28;20000;-76
2022/12/08 05:23:54;;;;;;;;;;;2.70;99.90;;;;;;5055116;28;19920;-76
2022/12/08 05:26:19;;;;;;;;;;;2.80;99.90;;;;;;5063678;28;19921;-76
2022/12/08 05:28:45;;;;;;;;;;;2.80;99.90;;;;;;5060758;28;19916;-76
2022/12/08 05:31:11;;;;;;;;;;;1.60;99.90;;;;;;5066588;28;19943;-76
2022/12/08 05:33:37;;;;;;;;;;;5.10;99.90;;;;;;5072991;28;20356;-76
2022/12/08 05:36:03;;;;;;;;;;;2.90;99.90;;;;;;5071885;28;19928;-76
2022/12/08 05:38:28;;;;;;;;;;;2.90;99.90;;;;;;5069384;28;19928;-75
2022/12/08 05:40:54;;;;;;;;;;;3.60;99.90;;;;;;5058985;28;20360;-74
2022/12/08 05:43:22;;;;;;;;;;;2.90;99.90;;;;;;5053846;28;20292;-75
2022/12/08 05:45:48;;;;;;;;;;;2.80;99.90;;;;;;5052786;28;19925;-75
2022/12/08 05:48:13;;;;;;;;;;;2.80;99.90;;;;;;5054227;28;20288;-75
2022/12/08 05:50:39;;;;;;;;;;;2.80;99.90;;;;;;5072194;28;19920;-75
2022/12/08 05:53:04;;;;;;;;;;;2.80;99.90;;;;;;5071471;28;20828;-75
2022/12/08 05:55:30;;;;;;;;;;;2.80;99.90;;;;;;5070382;28;19927;-74
2022/12/08 05:57:56;;;;;;;;;;;2.70;99.90;;;;;;5063407;28;19920;-71
2022/12/08 06:00:22;;;;;;;;;;;2.70;99.90;;;;;;5068553;28;19928;-73
2022/12/08 06:02:47;;;;;;;;;;;2.60;99.90;;;;;;5053156;28;19940;-73
2022/12/08 06:05:13;;;;;;;;;;;2.60;99.90;;;;;;5052650;28;20028;-72
2022/12/08 06:07:38;;;;;;;;;;;2.50;99.90;;;;;;5053972;28;19964;-77
2022/12/08 06:10:04;;;;;;;;;;;2.50;99.90;;;;;;5069030;28;19930;-80
2022/12/08 06:12:30;;;;;;;;;;;2.40;99.90;;;;;;5053491;28;20053;-82
2022/12/08 06:14:56;;;;;;;;;;;2.40;99.90;;;;;;5052897;28;19928;-84
2022/12/08 06:17:21;;;;;;;;;;;3.10;99.90;;;;;;5051315;28;20368;-77
2022/12/08 06:19:47;;;;;;;;;;;2.30;99.90;;;;;;5052925;28;19920;-82
2022/12/08 06:22:15;;;;;;;;;;;2.20;99.90;;;;;;5085557;28;20346;-76
2022/12/08 06:24:41;;;;;;;;;;;2.20;99.90;;;;;;5065801;28;20287;-73
2022/12/08 06:27:11;;;;;;;;;;;2.10;99.90;;;;;;5071209;28;19920;-78
2022/12/08 06:29:37;;;;;;;;;;;2.00;99.90;;;;;;5072198;28;19931;-73
2022/12/08 06:32:02;;;;;;;;;;;2.00;99.90;;;;;;5072646;28;19920;-80
2022/12/08 06:34:28;;;;;;;;;;;1.90;99.90;;;;;;5071239;28;19931;-71
2022/12/08 06:36:53;;;;;;;;;;;1.90;99.90;;;;;;5071347;28;20367;-81
2022/12/08 06:39:19;;;;;;;;;;;1.80;99.90;;;;;;5065939;28;19921;-77
2022/12/08 06:44:28;;;;;;;;;;;1.70;99.90;;;;;;5072576;28;19928;-79
2022/12/08 06:46:54;;;;;;;;;;;1.60;99.90;;;;;;5069799;28;19924;-81
2022/12/08 06:49:19;;;;;;;;;;;1.60;99.90;;;;;;5061567;28;19920;-78
2022/12/08 06:51:45;;;;;;;;;;;1.50;99.90;;;;;;5057601;28;19920;-75
2022/12/08 06:54:10;;;;;;;;;;;1.50;99.90;;;;;;5052529;28;19920;-77
2022/12/08 06:56:36;;;;;;;;;;;1.40;99.90;;;;;;5052728;28;19928;-78
2022/12/08 06:59:05;;;;;;;;;;;1.40;99.90;;;;;;5052235;28;19958;-78
2022/12/08 07:01:30;;;;;;;;;;;1.30;99.90;;;;;;5052924;28;19960;-76
2022/12/08 07:03:56;;;;;;;;;;;1.30;99.90;;;;;;5052592;28;20304;-76
2022/12/08 07:06:22;;;;;;;;;;;1.20;99.90;;;;;;5084431;28;19927;-77
2022/12/08 07:08:48;;;;;;;;;;;1.10;99.90;;;;;;5066643;28;19931;-76
2022/12/08 07:11:13;;;;;;;;;;;1.10;99.90;;;;;;5072839;28;19921;-75
2022/12/08 07:13:39;;;;;;;;;;;1.30;99.90;;;;;;5072618;28;20291;-72
2022/12/08 07:16:06;;;;;;;;;;;0.90;99.90;;;;;;5072134;28;20354;-80
2022/12/08 07:18:32;;;;;;;;;;;0.90;99.90;;;;;;5070935;28;19928;-80
2022/12/08 07:21:01;;;;;;;;;;;0.90;99.90;;;;;;5058334;28;19920;-74
2022/12/08 07:23:26;;;;;;;;;;;0.90;99.90;;;;;;5052486;28;19928;-77
2022/12/08 07:25:52;;;;;;;;;;;0.90;99.90;;;;;;5052153;28;20296;-70
2022/12/08 07:28:17;;;;;;;;;;;0.80;99.90;;;;;;5052142;28;19972;-72
2022/12/08 07:30:43;;;;;;;;;;;0.80;99.90;;;;;;5084853;28;20001;-72
2022/12/08 07:33:08;;;;;;;;;;;0.80;99.90;;;;;;5052522;28;19971;-74
2022/12/08 07:35:34;;;;;;;;;;;0.80;99.90;;;;;;5082539;28;19968;-76
2022/12/08 07:37:59;;;;;;;;;;;0.80;99.90;;;;;;5055555;28;20391;-75
2022/12/08 07:40:25;;;;;;;;;;;0.80;99.90;;;;;;5069557;28;19916;-75
2022/12/08 07:42:53;;;;;;;;;;;0.80;99.90;;;;;;5070443;28;19924;-75
2022/12/08 07:45:19;;;;;;;;;;;0.80;99.90;;;;;;5070990;28;19920;-75
2022/12/08 07:47:44;;;;;;;;;;;0.80;99.90;;;;;;5070397;28;19916;-75
2022/12/08 07:50:11;;;;;;;;;;;0.70;99.90;;;;;;5071139;28;19927;-75
2022/12/08 07:52:36;;;;;;;;;;;0.70;99.90;;;;;;5072342;28;19924;-75
2022/12/08 07:55:02;;;;;;;;;;;0.80;99.90;;;;;;5071169;28;20376;-75
2022/12/08 07:57:27;;;;;;;;;;;0.80;99.90;;;;;;5069962;28;19924;-74
2022/12/08 07:59:53;;;;;;;;;;;0.90;99.90;;;;;;5055919;28;19924;-76
2022/12/08 08:02:18;;;;;;;;;;;0.90;99.90;;;;;;5083788;28;19920;-76
2022/12/08 08:04:44;;;;;;;;;;;0.90;99.90;;;;;;5061529;28;19934;-75
2022/12/08 08:07:12;;;;;;;;;;;0.80;99.90;;;;;;5074169;28;19920;-75
2022/12/08 08:09:38;;;;;;;;;;;0.90;99.90;;;;;;5075198;28;19947;-75
2022/12/08 08:12:03;;;;;;;;;;;0.90;99.90;;;;;;5075257;28;20295;-75
2022/12/08 08:14:29;;;;;;;;;;;0.90;99.90;;;;;;5072575;28;19986;-74
2022/12/08 08:16:54;;;;;;;;;;;0.90;99.90;;;;;;5054736;28;19921;-75
2022/12/08 08:19:20;;;;;;;;;;;1.20;99.90;;;;;;5054391;28;19921;-75
2022/12/08 08:21:45;;;;;;;;;;;1.00;99.90;;;;;;5087888;28;19917;-75
2022/12/08 08:24:11;;;;;;;;;;;1.00;99.90;;;;;;5054982;28;20360;-75
2022/12/08 08:26:36;;;;;;;;;;;1.10;99.90;;;;;;5056079;28;20379;-76
2022/12/08 08:29:02;;;;;;;;;;;1.20;99.90;;;;;;5053900;28;19920;-75
2022/12/08 08:31:28;;;;;;;;;;;1.30;99.90;;;;;;5054894;28;19925;-75
2022/12/08 08:33:54;;;;;;;;;;;1.40;99.90;;;;;;5054899;28;19921;-76
2022/12/08 08:36:20;;;;;;;;;;;2.40;99.90;;;;;;5055709;28;19960;-75
2022/12/08 08:38:46;;;;;;;;;;;1.50;99.90;;;;;;5074735;28;19921;-75
2022/12/08 08:41:12;;;;;;;;;;;1.60;99.90;;;;;;5060505;28;19924;-76
2022/12/08 08:43:37;;;;;;;;;;;2.70;99.90;;;;;;5055609;28;19924;-76
2022/12/08 08:46:03;;;;;;;;;;;1.70;99.90;;;;;;5074034;28;19966;-76
2022/12/08 08:48:30;;;;;;;;;;;1.70;99.90;;;;;;5074821;28;19961;-76
2022/12/08 08:50:56;;;;;;;;;;;1.70;99.90;;;;;;5074217;28;19921;-76
2022/12/08 08:53:22;;;;;;;;;;;2.80;99.90;;;;;;5074428;28;19921;-76
2022/12/08 08:55:48;;;;;;;;;;;2.60;99.90;;;;;;5063688;28;19966;-77
2022/12/08 08:58:13;;;;;;;;;;;1.80;99.90;;;;;;5054138;28;20008;-76
2022/12/08 09:00:39;;;;;;;;;;;2.00;99.90;;;;;;5054656;28;19927;-78
2022/12/08 09:03:04;;;;;;;;;;;3.20;99.90;;;;;;5086483;28;19921;-77
2022/12/08 09:05:30;;;;;;;;;;;5.70;99.90;;;;;;5054010;28;19939;-77
2022/12/08 09:07:55;;;;;;;;;;;5.70;99.90;;;;;;5052579;28;20368;-77
2022/12/08 09:10:21;;;;;;;;;;;7.00;99.90;;;;;;5054714;28;20284;-78
2022/12/08 09:12:46;;;;;;;;;;;9.20;99.90;;;;;;5088946;28;19927;-77
2022/12/08 09:15:16;;;;;;;;;;;9.00;99.90;;;;;;5071607;28;19970;-77
2022/12/08 09:17:41;;;;;;;;;;;9.70;99.90;;;;;;5074106;28;20287;-77
2022/12/08 09:20:07;;;;;;;;;;;10.60;99.90;;;;;;5073574;28;20007;-78
2022/12/08 09:22:32;;;;;;;;;;;11.20;99.90;;;;;;5072949;28;19924;-78
2022/12/08 09:24:58;;;;;;;;;;;12.00;99.90;;;;;;5074056;28;20023;-77
2022/12/08 09:27:23;;;;;;;;;;;12.70;99.90;;;;;;5073532;28;19927;-78
2022/12/08 09:29:49;;;;;;;;;;;13.30;99.90;;;;;;5073583;28;19920;-74
2022/12/08 09:32:14;;;;;;;;;;;13.80;99.90;;;;;;5060728;28;19921;-77
2022/12/08 09:34:40;;;;;;;;;;;15.00;99.90;;;;;;5068948;28;19928;-77
2022/12/08 09:37:05;;;;;;;;;;;15.70;98.70;;;;;;5073160;28;19924;-77
2022/12/08 09:39:31;;;;;;;;;;;15.50;94.00;;;;;;5073011;28;19921;-77
2022/12/08 09:42:03;;;;;;;;;;;15.00;94.50;;;;;;5071992;28;20313;-77
2022/12/08 09:44:41;;;;;;;;;;;15.20;95.50;;;;;;5074011;28;19920;-77
2022/12/08 09:47:26;;;;;;;;;;;14.50;93.80;;;;;;5063340;28;19927;-77
2022/12/08 09:50:00;;;;;;;;;;;14.50;93.70;;;;;;5051846;28;19920;-77
2022/12/08 09:52:27;;;;;;;;;;;14.30;94.60;;;;;;5053883;28;19938;-77
2022/12/08 09:54:55;;;;;;;;;;;14.90;94.10;;;;;;5054827;28;19936;-77
2022/12/08 09:57:22;;;;;;;;;;;15.20;92.90;;;;;;5053138;28;20401;-77
2022/12/08 09:59:59;;;;;;;;;;;15.70;93.50;;;;;;5053392;28;19929;-77
2022/12/08 10:02:27;;;;;;;;;;;15.90;91.60;;;;;;5051840;28;19921;-78
2022/12/08 10:04:56;;;;;;;;;;;16.30;90.90;;;;;;5051948;28;19928;-77
2022/12/08 10:07:22;;;;;;;;;;;16.20;91.80;;;;;;5052187;28;20338;-75
2022/12/08 10:09:50;;;;;;;;;;;17.70;89.70;;;;;;5052663;28;19986;-78
2022/12/08 10:12:29;;;;;;;;;;;17.10;89.70;;;;;;5088445;28;19920;-78
2022/12/08 10:15:18;;;;;;;;;;;17.30;91.00;;;;;;5071022;28;19920;-78
2022/12/08 10:17:47;;;;;;;;;;;18.10;87.10;;;;;;5069344;28;19921;-78
2022/12/08 10:20:17;;;;;;;;;;;17.30;89.50;;;;;;5072760;28;19920;-78
2022/12/08 10:22:44;;;;;;;;;;;17.20;88.00;;;;;;5072998;28;19920;-78
2022/12/08 10:25:15;;;;;;;;;;;17.00;88.90;;;;;;5072023;28;19916;-78
2022/12/08 10:27:41;;;;;;;;;;;17.80;87.80;;;;;;5073235;28;19995;-79
2022/12/08 10:30:11;;;;;;;;;;;17.70;85.10;;;;;;5060644;28;20358;-76
2022/12/08 10:32:38;;;;;;;;;;;17.80;89.30;;;;;;5053225;28;19926;-77
2022/12/08 10:35:07;;;;;;;;;;;18.40;89.70;;;;;;5053131;28;19975;-77
2022/12/08 10:37:33;;;;;;;;;;;18.60;86.10;;;;;;5052393;28;19928;-77
2022/12/08 10:40:19;;;;;;;;;;;18.30;86.50;;;;;;5063367;28;20291;-76
2022/12/08 10:42:45;;;;;;;;;;;18.40;87.70;;;;;;5055746;28;19944;-76
2022/12/08 10:45:20;;;;;;;;;;;17.80;84.60;;;;;;5052569;28;19921;-76
2022/12/08 10:48:09;;;;;;;;;;;17.30;88.50;;;;;;5052425;28;19928;-77
2022/12/08 10:50:40;;;;;;;;;;;16.20;88.10;;;;;;5045686;28;19927;-77
2022/12/08 10:53:08;;;;;;;;;;;14.80;91.40;;;;;;5068598;28;19924;-76
2022/12/08 10:55:39;;;;;;;;;;;13.60;92.10;;;;;;5072692;28;20368;-76
2022/12/08 10:58:12;;;;;;;;;;;13.00;94.00;;;;;;5072042;28;19970;-76
2022/12/08 11:00:38;;;;;;;;;;;12.00;93.10;;;;;;5073067;28;19927;-76
2022/12/08 11:03:04;;;;;;;;;;;11.40;94.80;;;;;;5066667;28;19920;-75
2022/12/08 11:05:34;;;;;;;;;;;10.60;96.20;;;;;;5084492;28;20368;-76
2022/12/08 11:08:00;;;;;;;;;;;10.00;96.20;;;;;;5069564;28;19920;-76
2022/12/08 11:10:36;;;;;;;;;;;9.40;98.60;;;;;;5059965;28;19916;-81
2022/12/08 11:13:06;;;;;;;;;;;9.10;99.90;;;;;;5070457;28;20283;-78
2022/12/08 11:15:37;;;;;;;;;;;8.70;99.90;;;;;;5058270;28;19920;-75
2022/12/08 11:18:22;;;;;;;;;;;8.40;99.90;;;;;;5070752;28;20383;-76
2022/12/08 11:20:54;;;;;;;;;;;8.20;99.90;;;;;;5070810;28;19921;-72
2022/12/08 11:23:21;;;;;;;;;;;8.60;99.90;;;;;;5073048;28;19920;-73
2022/12/08 11:25:47;;;;;;;;;;;7.50;99.90;;;;;;5073759;28;19920;-79
2022/12/08 11:28:21;;;;;;;;;;;7.20;99.90;;;;;;5054575;28;20019;-87
2022/12/08 11:30:49;;;;;;;;;;;7.30;99.90;;;;;;5051371;28;19921;-76
2022/12/08 11:33:24;;;;;;;;;;;6.90;99.90;;;;;;5051916;28;20478;-73
2022/12/08 11:35:53;;;;;;;;;;;6.80;99.90;;;;;;5055411;28;20070;-72
2022/12/08 11:38:23;;;;;;;;;;;6.90;99.90;;;;;;5061653;28;19921;-77
2022/12/08 11:40:50;;;;;;;;;;;7.40;99.90;;;;;;5087771;28;19928;-77
2022/12/08 11:43:35;;;;;;;;;;;7.60;99.90;;;;;;5055039;28;19928;-77
2022/12/08 11:46:03;;;;;;;;;;;6.70;99.90;;;;;;5054789;28;20403;-76
2022/12/08 11:48:32;;;;;;;;;;;6.70;99.90;;;;;;5056297;28;21101;-76
2022/12/08 11:51:03;;;;;;;;;;;6.60;99.90;;;;;;5055926;28;19927;-76
2022/12/08 11:53:38;;;;;;;;;;;6.50;99.90;;;;;;5087939;28;19921;-76
2022/12/08 11:56:07;;;;;;;;;;;6.50;99.90;;;;;;5087892;28;19927;-77
2022/12/08 11:58:36;;;;;;;;;;;6.20;99.90;;;;;;5056084;28;19921;-76
2022/12/08 12:01:02;;;;;;;;;;;5.90;99.90;;;;;;5056358;28;19982;-77
2022/12/08 12:03:39;;;;;;;;;;;5.80;99.90;;;;;;5055897;28;20372;-76
2022/12/08 12:06:17;;;;;;;;;;;5.80;99.90;;;;;;5054088;28;20380;-76
2022/12/08 12:08:57;;;;;;;;;;;5.70;99.90;;;;;;5054351;28;20000;-76
2022/12/08 12:14:21;;;;;;;;;;;5.40;99.90;;;;;;5055510;28;20372;-76
2022/12/08 12:16:59;;;;;;;;;;;5.40;99.90;;;;;;5054955;28;19931;-76
2022/12/08 12:19:29;;;;;;;;;;;5.40;99.90;;;;;;5054805;28;19936;-76
2022/12/08 12:22:10;;;;;;;;;;;5.30;99.90;;;;;;5054975;28;19967;-76
2022/12/08 12:24:36;;;;;;;;;;;5.30;99.90;;;;;;5055697;28;20383;-76
2022/12/08 12:27:05;;;;;;;;;;;5.20;99.90;;;;;;5054246;28;19921;-76
2022/12/08 12:29:35;;;;;;;;;;;5.20;99.90;;;;;;5054542;28;19920;-76
2022/12/08 12:32:09;;;;;;;;;;;5.30;99.90;;;;;;5053707;28;20288;-75
2022/12/08 12:34:34;;;;;;;;;;;5.30;99.90;;;;;;5055596;28;19921;-76
2022/12/08 12:37:03;;;;;;;;;;;5.50;99.90;;;;;;5054742;28;20019;-76
2022/12/08 12:39:30;;;;;;;;;;;5.40;99.90;;;;;;5090468;28;20015;-76
2022/12/08 12:41:59;;;;;;;;;;;5.40;99.90;;;;;;5074220;28;20294;-76
2022/12/08 12:44:31;;;;;;;;;;;6.00;99.90;;;;;;5074482;28;19924;-76
2022/12/08 12:47:00;;;;;;;;;;;5.90;99.90;;;;;;5074622;28;20375;-76
2022/12/08 12:49:38;;;;;;;;;;;6.20;99.90;;;;;;5060790;28;19927;-76
2022/12/08 12:52:24;;;;;;;;;;;6.60;99.90;;;;;;5089800;28;19920;-76
2022/12/08 12:54:49;;;;;;;;;;;7.30;99.90;;;;;;5073848;28;19924;-77
2022/12/08 12:57:20;;;;;;;;;;;6.90;99.90;;;;;;5073660;28;20379;-78
2022/12/08 13:00:06;;;;;;;;;;;7.20;99.90;;;;;;5072796;28;19981;-77
2022/12/08 13:02:35;;;;;;;;;;;7.70;99.90;;;;;;5068035;28;19958;-75
2022/12/08 13:05:08;;;;;;;;;;;8.40;99.90;;;;;;5067778;28;19920;-75
2022/12/08 13:07:54;;;;;;;;;;;8.70;99.90;;;;;;5052633;28;19967;-75
2022/12/08 13:10:22;;;;;;;;;;;9.60;99.90;;;;;;5053028;28;19968;-76
2022/12/08 13:13:15;;;;;;;;;;;9.80;99.90;;;;;;5053554;28;19920;-77
2022/12/08 13:15:49;;;;;;;;;;;10.10;99.90;;;;;;5053417;28;19920;-75
2022/12/08 13:18:25;;;;;;;;;;;10.40;99.90;;;;;;5050602;28;19929;-81
2022/12/08 13:20:57;;;;;;;;;;;10.70;99.90;;;;;;5068556;28;19920;-75
2022/12/08 13:23:27;;;;;;;;;;;10.50;99.90;;;;;;5060380;28;20054;-74
2022/12/08 13:26:13;;;;;;;;;;;10.20;99.90;;;;;;5072394;28;19924;-77
2022/12/08 13:29:05;;;;;;;;;;;9.90;99.90;;;;;;5049480;28;19928;-79
2022/12/08 13:31:39;;;;;;;;;;;9.70;99.90;;;;;;5055831;28;19963;-87
2022/12/08 13:34:11;;;;;;;;;;;9.20;99.90;;;;;;5052825;28;19932;-81
2022/12/08 13:36:38;;;;;;;;;;;8.70;99.90;;;;;;5069528;28;19920;-82
2022/12/08 13:39:05;;;;;;;;;;;8.10;99.90;;;;;;5055575;28;19921;-85
2022/12/08 13:41:34;;;;;;;;;;;7.60;99.90;;;;;;5054148;28;19927;-82
2022/12/08 13:44:23;;;;;;;;;;;7.20;99.90;;;;;;5064459;28;19921;-78
2022/12/08 13:46:53;;;;;;;;;;;6.90;99.90;;;;;;5043453;28;19932;-77
2022/12/08 13:49:23;;;;;;;;;;;6.70;99.90;;;;;;5065859;28;20399;-77
2022/12/08 13:51:51;;;;;;;;;;;7.30;99.90;;;;;;5061488;28;19931;-78
2022/12/08 13:54:25;;;;;;;;;;;6.40;99.90;;;;;;5072713;28;20361;-77
2022/12/08 13:56:51;;;;;;;;;;;7.80;99.90;;;;;;5055557;28;19920;-76
2022/12/08 13:59:33;;;;;;;;;;;6.10;99.90;;;;;;5072587;28;20003;-77
2022/12/08 14:02:24;;;;;;;;;;;6.00;99.90;;;;;;5051062;28;19952;-77
2022/12/08 14:04:50;;;;;;;;;;;5.90;99.90;;;;;;5055010;28;19921;-77
2022/12/08 14:07:16;;;;;;;;;;;5.80;99.90;;;;;;5071349;28;19927;-77
2022/12/08 14:09:41;;;;;;;;;;;5.80;99.90;;;;;;5066499;28;19920;-77
2022/12/08 14:12:15;;;;;;;;;;;6.00;99.90;;;;;;5062035;28;19931;-77
2022/12/08 14:14:44;;;;;;;;;;;7.00;99.90;;;;;;5072506;28;19970;-76
2022/12/08 14:17:19;;;;;;;;;;;5.50;99.90;;;;;;5055509;28;20006;-76
2022/12/08 14:20:11;;;;;;;;;;;5.50;99.90;;;;;;5066505;28;19928;-74
2022/12/08 14:22:38;;;;;;;;;;;5.30;99.90;;;;;;5055187;28;19920;-75
2022/12/08 14:25:04;;;;;;;;;;;6.50;99.90;;;;;;5064405;28;20394;-76
2022/12/08 14:27:34;;;;;;;;;;;5.00;99.90;;;;;;5052172;28;19920;-75
2022/12/08 14:30:01;;;;;;;;;;;4.90;99.90;;;;;;5053264;28;19920;-74
2022/12/08 14:32:43;;;;;;;;;;;4.80;99.90;;;;;;5086558;28;20280;-75
2022/12/08 14:35:08;;;;;;;;;;;4.60;99.90;;;;;;5054234;28;19978;-76
2022/12/08 14:37:39;;;;;;;;;;;4.40;99.90;;;;;;5064534;28;19939;-76
2022/12/08 14:40:09;;;;;;;;;;;4.30;99.90;;;;;;5055108;28;20575;-75
2022/12/08 14:42:42;;;;;;;;;;;4.20;99.90;;;;;;5055043;28;19920;-76
2022/12/08 14:45:12;;;;;;;;;;;4.10;99.90;;;;;;5069605;28;19974;-78
2022/12/08 14:47:37;;;;;;;;;;;3.90;99.90;;;;;;5069552;28;20496;-77